createdAt,value
2023-10-26T00:00:38.675Z,36.67
2023-10-26T00:03:05.488Z,38.05
2023-10-26T00:05:32.340Z,35.00
2023-10-26T00:07:59.026Z,50.72
2023-10-26T00:10:25.899Z,39.03
2023-10-26T00:12:52.609Z,35.00
2023-10-26T00:15:19.576Z,44.40
2023-10-26T00:17:46.570Z,48.75
2023-10-26T00:20:13.601Z,60.15
2023-10-26T00:22:40.403Z,41.83
2023-10-26T00:25:07.527Z,34.28
2023-10-26T00:27:34.937Z,31.30
2023-10-26T00:30:01.624Z,47.28
2023-10-26T00:32:29.025Z,33.78
2023-10-26T00:34:55.721Z,34.55
2023-10-26T00:37:23.196Z,42.80
2023-10-26T00:39:49.937Z,41.08
2023-10-26T00:42:16.648Z,40.13
2023-10-26T00:44:47.469Z,37.53
2023-10-26T00:47:15.941Z,39.50
2023-10-26T00:49:43.355Z,45.97
2023-10-26T00:52:11.179Z,50.80
2023-10-26T00:54:40.644Z,48.60
2023-10-26T00:57:07.319Z,42.00
2023-10-26T00:59:34.974Z,46.60
2023-10-26T01:02:02.407Z,41.63
2023-10-26T01:04:29.370Z,59.00
2023-10-26T01:06:56.182Z,51.22
2023-10-26T01:09:22.965Z,53.38
2023-10-26T01:11:49.664Z,54.17
2023-10-26T01:14:16.665Z,53.80
2023-10-26T01:16:43.282Z,47.08
2023-10-26T01:19:10.909Z,58.45
2023-10-26T01:21:50.808Z,43.22
2023-10-26T01:24:17.706Z,54.65
2023-10-26T01:26:44.591Z,46.47
2023-10-26T01:29:11.393Z,50.65
2023-10-26T01:31:38.123Z,63.55
2023-10-26T01:34:05.042Z,59.20
2023-10-26T01:36:32.273Z,47.92
2023-10-26T01:39:01.351Z,54.15
2023-10-26T01:41:32.106Z,53.05
2023-10-26T01:43:59.230Z,85.15
2023-10-26T01:46:25.922Z,42.33
2023-10-26T01:48:52.821Z,64.38
2023-10-26T01:51:19.955Z,62.75
2023-10-26T01:53:46.591Z,95.53
2023-10-26T01:56:13.367Z,75.43
2023-10-26T01:58:40.121Z,108.47
2023-10-26T02:01:07.018Z,103.57
2023-10-26T02:03:34.007Z,89.10
2023-10-26T02:06:02.802Z,90.90
2023-10-26T02:08:30.196Z,64.82
2023-10-26T02:10:56.880Z,82.57
2023-10-26T02:13:23.599Z,119.80
2023-10-26T02:15:50.266Z,104.35
2023-10-26T02:18:16.931Z,79.60
2023-10-26T02:20:43.726Z,50.40
2023-10-26T02:23:10.429Z,80.40
2023-10-26T02:25:37.071Z,78.65
2023-10-26T02:28:04.173Z,62.60
2023-10-26T02:30:30.947Z,63.20
2023-10-26T02:32:57.712Z,55.92
2023-10-26T02:35:24.686Z,55.80
2023-10-26T02:37:51.470Z,46.47
2023-10-26T02:40:18.105Z,73.43
2023-10-26T02:42:44.696Z,95.18
2023-10-26T02:45:11.672Z,76.45
2023-10-26T02:47:41.640Z,99.20
2023-10-26T02:50:09.301Z,51.38
2023-10-26T02:52:36.822Z,57.15
2023-10-26T02:55:05.123Z,71.45
2023-10-26T02:57:31.947Z,43.08
2023-10-26T02:59:58.769Z,52.33
2023-10-26T03:02:25.532Z,45.20
2023-10-26T03:04:52.632Z,44.90
2023-10-26T03:07:23.807Z,48.85
2023-10-26T03:09:51.270Z,110.70
2023-10-26T03:12:19.675Z,108.47
2023-10-26T03:14:46.368Z,109.63
2023-10-26T03:17:16.839Z,62.47
2023-10-26T03:19:44.783Z,47.47
2023-10-26T03:22:11.764Z,46.13
2023-10-26T03:24:38.533Z,149.35
2023-10-26T03:27:05.431Z,84.85
2023-10-26T03:29:32.229Z,75.60
2023-10-26T03:31:59.728Z,206.27
2023-10-26T03:34:26.394Z,333.23
2023-10-26T03:36:53.190Z,495.85
2023-10-26T03:39:20.207Z,522.05
2023-10-26T03:41:46.991Z,373.58
2023-10-26T03:44:13.680Z,341.80
2023-10-26T03:46:40.326Z,366.20
2023-10-26T03:49:07.145Z,167.98
2023-10-26T03:51:34.285Z,168.30
2023-10-26T03:54:01.020Z,160.95
2023-10-26T03:56:27.728Z,147.65
2023-10-26T03:58:54.481Z,226.75
2023-10-26T04:01:21.588Z,97.90
2023-10-26T04:03:48.161Z,171.80
2023-10-26T04:06:14.950Z,234.02
2023-10-26T04:08:41.689Z,280.13
2023-10-26T04:11:08.340Z,378.20
2023-10-26T04:13:35.509Z,292.98
2023-10-26T04:16:03.023Z,104.57
2023-10-26T04:18:30.337Z,212.63
2023-10-26T04:20:57.166Z,302.60
2023-10-26T04:23:24.107Z,279.23
2023-10-26T04:25:55.073Z,313.52
2023-10-26T04:28:22.209Z,308.73
2023-10-26T04:30:49.229Z,182.60
2023-10-26T04:33:18.430Z,84.10
2023-10-26T04:35:46.131Z,302.80
2023-10-26T04:38:12.788Z,244.13
2023-10-26T04:40:39.938Z,393.40
2023-10-26T04:43:07.363Z,217.70
2023-10-26T04:45:34.260Z,217.23
2023-10-26T04:48:02.234Z,266.13
2023-10-26T04:50:31.260Z,239.77
2023-10-26T04:52:58.738Z,373.58
2023-10-26T04:55:25.464Z,526.00
2023-10-26T04:57:52.124Z,311.17
2023-10-26T05:00:19.014Z,195.40
2023-10-26T05:02:45.639Z,397.00
2023-10-26T05:05:12.323Z,223.45
2023-10-26T05:07:39.212Z,278.63
2023-10-26T05:10:06.555Z,652.03
2023-10-26T05:12:33.251Z,405.83
2023-10-26T05:15:00.166Z,483.67
2023-10-26T05:17:26.909Z,540.65
2023-10-26T05:19:53.626Z,292.42
2023-10-26T05:22:20.547Z,596.15
2023-10-26T05:24:47.225Z,539.05
2023-10-26T05:27:14.069Z,280.73
2023-10-26T05:29:40.783Z,543.25
2023-10-26T05:32:07.580Z,555.10
2023-10-26T05:34:34.270Z,387.85
2023-10-26T05:37:01.077Z,410.80
2023-10-26T05:39:27.652Z,381.20
2023-10-26T05:41:54.282Z,257.48
2023-10-26T05:44:20.930Z,189.43
2023-10-26T05:46:47.670Z,398.52
2023-10-26T05:49:14.285Z,266.80
2023-10-26T05:51:40.901Z,455.02
2023-10-26T05:54:08.132Z,266.27
2023-10-26T05:56:34.864Z,534.13
2023-10-26T05:59:01.671Z,280.75
2023-10-26T06:01:30.516Z,423.48
2023-10-26T06:03:58.525Z,667.90
2023-10-26T06:06:25.118Z,607.85
2023-10-26T06:08:51.991Z,601.90
2023-10-26T06:11:19.667Z,411.25
2023-10-26T06:13:47.430Z,452.50
2023-10-26T06:16:17.450Z,385.33
2023-10-26T06:18:44.295Z,425.60
2023-10-26T06:21:11.012Z,476.98
2023-10-26T06:23:37.698Z,430.33
2023-10-26T06:26:04.715Z,693.58
2023-10-26T06:28:31.514Z,166.43
2023-10-26T06:31:08.322Z,227.52
2023-10-26T06:33:35.012Z,210.07
2023-10-26T06:36:01.607Z,139.73
2023-10-26T06:38:28.296Z,254.02
2023-10-26T06:40:56.026Z,330.25
2023-10-26T06:43:25.725Z,294.42
2023-10-26T06:45:52.302Z,568.08
2023-10-26T06:48:22.189Z,473.10
2023-10-26T06:50:49.115Z,443.85
2023-10-26T06:53:15.850Z,119.32
2023-10-26T06:55:44.004Z,295.60
2023-10-26T06:58:10.655Z,494.08
2023-10-26T07:00:37.296Z,530.13
2023-10-26T07:03:04.058Z,317.25
2023-10-26T07:05:32.800Z,493.70
2023-10-26T07:08:00.955Z,245.93
2023-10-26T07:10:28.124Z,211.52
2023-10-26T07:12:54.906Z,286.67
2023-10-26T07:15:21.588Z,258.13
2023-10-26T07:17:48.442Z,123.95
2023-10-26T07:20:15.206Z,151.75
2023-10-26T07:22:43.660Z,324.50
2023-10-26T07:25:10.497Z,282.73
2023-10-26T07:27:38.631Z,144.75
2023-10-26T07:30:06.055Z,91.47
2023-10-26T07:32:32.841Z,84.10
2023-10-26T07:35:04.016Z,84.97
2023-10-26T07:37:31.143Z,86.43
2023-10-26T07:42:44.642Z,88.60
2023-10-26T07:45:11.289Z,82.32
2023-10-26T07:47:37.836Z,63.80
2023-10-26T07:50:07.492Z,67.38
2023-10-26T07:52:34.119Z,70.45
2023-10-26T07:55:00.849Z,68.30
2023-10-26T07:57:27.465Z,62.15
2023-10-26T07:59:54.162Z,76.55
2023-10-26T08:02:20.858Z,57.35
2023-10-26T08:04:48.772Z,67.93
2023-10-26T08:07:15.481Z,53.78
2023-10-26T08:09:42.138Z,62.95
2023-10-26T08:12:08.928Z,60.25
2023-10-26T08:16:28.406Z,56.92
2023-10-26T08:17:24.669Z,49.55
2023-10-26T08:19:52.187Z,56.05
2023-10-26T08:22:18.912Z,51.45
2023-10-26T08:24:45.668Z,51.40
2023-10-26T08:27:12.300Z,45.72
2023-10-26T08:29:39.076Z,50.20
2023-10-26T08:32:06.190Z,53.15
2023-10-26T08:34:33.174Z,47.72
2023-10-26T08:37:12.291Z,52.22
2023-10-26T08:39:40.218Z,50.38
2023-10-26T08:42:06.920Z,46.10
2023-10-26T08:44:33.653Z,55.65
2023-10-26T08:47:03.014Z,51.05
2023-10-26T08:49:31.025Z,47.97
2023-10-26T08:51:57.905Z,48.13
2023-10-26T08:54:24.657Z,51.47
2023-10-26T08:56:51.265Z,45.33
2023-10-26T08:59:20.831Z,54.03
2023-10-26T09:01:48.981Z,46.60
2023-10-26T09:04:16.020Z,55.05
2023-10-26T09:06:46.566Z,48.03
2023-10-26T09:09:13.828Z,44.47
2023-10-26T09:11:40.553Z,43.08
2023-10-26T09:14:14.962Z,43.55
2023-10-26T09:16:42.520Z,45.80
2023-10-26T09:19:09.380Z,43.80
2023-10-26T09:21:55.423Z,45.35
2023-10-26T09:24:25.716Z,44.03
2023-10-26T09:26:56.118Z,41.70
2023-10-26T09:29:35.367Z,55.60
2023-10-26T09:32:02.106Z,41.42
2023-10-26T09:34:29.140Z,42.53
2023-10-26T09:37:02.821Z,40.97
2023-10-26T09:39:30.201Z,45.10
2023-10-26T09:41:58.003Z,42.25
2023-10-26T09:44:25.550Z,42.50
2023-10-26T09:46:52.229Z,65.68
2023-10-26T09:49:19.157Z,43.83
2023-10-26T09:51:46.587Z,40.70
2023-10-26T09:54:15.090Z,44.53
2023-10-26T09:56:44.984Z,45.75
2023-10-26T09:59:12.158Z,50.20
2023-10-26T10:01:39.566Z,58.00
2023-10-26T10:04:06.711Z,46.67
2023-10-26T10:06:52.399Z,50.00
2023-10-26T10:09:20.889Z,46.47
2023-10-26T10:12:09.132Z,45.40
2023-10-26T10:14:48.029Z,44.83
2023-10-26T10:17:20.743Z,47.22
2023-10-26T10:19:48.345Z,48.78
2023-10-26T10:22:33.727Z,44.75
2023-10-26T10:27:28.224Z,42.10
2023-10-26T10:29:58.489Z,37.40
2023-10-26T10:32:43.838Z,39.83
2023-10-26T10:35:11.464Z,41.83
2023-10-26T10:37:38.650Z,38.38
2023-10-26T10:40:13.081Z,43.13
2023-10-26T10:42:40.717Z,36.15
2023-10-26T10:45:12.592Z,34.30
2023-10-26T10:47:40.060Z,32.40
2023-10-26T10:50:23.307Z,33.40
2023-10-26T10:52:51.022Z,32.75
2023-10-26T10:55:25.804Z,36.13
2023-10-26T10:57:53.800Z,30.58
2023-10-26T11:00:21.078Z,31.42
2023-10-26T11:02:49.123Z,30.52
2023-10-26T11:05:18.909Z,26.95
2023-10-26T11:07:46.133Z,31.65
2023-10-26T11:10:12.828Z,30.25
2023-10-26T11:12:39.639Z,29.05
2023-10-26T11:15:08.868Z,29.33
2023-10-26T11:17:35.945Z,29.65
2023-10-26T11:20:04.356Z,30.38
2023-10-26T11:22:31.095Z,25.00
2023-10-26T11:24:57.816Z,28.65
2023-10-26T11:27:24.617Z,26.05
2023-10-26T11:30:01.254Z,26.08
2023-10-26T11:32:29.733Z,32.35
2023-10-26T11:35:02.781Z,27.63
2023-10-26T11:37:30.487Z,27.90
2023-10-26T11:39:57.210Z,25.05
2023-10-26T11:42:42.528Z,23.73
2023-10-26T11:45:09.207Z,25.38
2023-10-26T11:47:46.368Z,25.50
2023-10-26T11:50:20.718Z,24.38
2023-10-26T11:52:47.659Z,21.17
2023-10-26T11:55:17.536Z,23.35
2023-10-26T11:57:44.657Z,21.35
2023-10-26T12:00:12.920Z,22.77
2023-10-26T12:02:40.591Z,22.92
2023-10-26T12:05:13.109Z,20.23
2023-10-26T12:07:39.730Z,20.83
2023-10-26T12:10:06.612Z,22.75
2023-10-26T12:12:33.498Z,25.73
2023-10-26T12:15:00.275Z,22.23
2023-10-26T12:17:27.274Z,18.88
2023-10-26T12:19:53.860Z,18.98
2023-10-26T12:22:21.736Z,18.55
2023-10-26T12:24:48.557Z,15.27
2023-10-26T12:27:19.316Z,14.90
2023-10-26T12:29:46.358Z,13.95
2023-10-26T12:32:13.624Z,12.50
2023-10-26T12:34:40.588Z,10.82
2023-10-26T12:37:07.266Z,11.05
2023-10-26T12:39:34.112Z,11.90
2023-10-26T12:42:00.777Z,10.20
2023-10-26T12:44:27.523Z,10.55
2023-10-26T12:46:55.094Z,12.60
2023-10-26T12:49:24.851Z,14.35
2023-10-26T12:51:52.226Z,14.70
2023-10-26T12:54:19.412Z,12.35
2023-10-26T12:56:46.149Z,14.02
2023-10-26T12:59:12.937Z,13.68
2023-10-26T13:01:39.860Z,13.18
2023-10-26T13:04:06.785Z,13.57
2023-10-26T13:06:36.253Z,15.48
2023-10-26T13:09:03.559Z,15.07
2023-10-26T13:11:30.146Z,17.98
2023-10-26T13:13:56.681Z,13.07
2023-10-26T13:16:23.833Z,15.65
2023-10-26T13:18:50.959Z,12.25
2023-10-26T13:21:17.700Z,12.93
2023-10-26T13:23:44.581Z,14.00
2023-10-26T13:26:11.309Z,12.20
2023-10-26T13:28:38.053Z,11.75
2023-10-26T13:31:04.968Z,12.20
2023-10-26T13:33:31.788Z,13.48
2023-10-26T13:35:58.523Z,14.45
2023-10-26T13:38:25.270Z,15.23
2023-10-26T13:40:51.855Z,14.27
2023-10-26T13:43:18.732Z,15.85
2023-10-26T13:45:45.404Z,17.77
2023-10-26T13:48:12.145Z,19.55
2023-10-26T13:50:39.695Z,19.85
2023-10-26T13:53:06.600Z,18.15
2023-10-26T13:55:33.846Z,18.38
2023-10-26T13:58:00.757Z,18.67
2023-10-26T14:00:27.397Z,22.23
2023-10-26T14:02:54.022Z,20.70
2023-10-26T14:07:50.726Z,17.52
2023-10-26T14:10:17.362Z,17.58
2023-10-26T14:12:44.319Z,17.60
2023-10-26T14:15:12.033Z,18.33
2023-10-26T14:17:40.475Z,20.40
2023-10-26T14:20:07.697Z,24.52
2023-10-26T14:22:34.686Z,20.27
2023-10-26T14:25:02.171Z,22.33
2023-10-26T14:27:30.306Z,17.98
2023-10-26T14:29:56.974Z,19.20
2023-10-26T14:32:23.664Z,18.52
2023-10-26T14:34:50.324Z,18.67
2023-10-26T14:37:16.988Z,17.08
2023-10-26T14:39:43.715Z,22.52
2023-10-26T14:42:11.698Z,21.67
2023-10-26T14:44:38.870Z,19.55
2023-10-26T14:47:06.537Z,19.25
2023-10-26T14:49:33.313Z,18.65
2023-10-26T14:52:01.247Z,18.40
2023-10-26T14:54:28.105Z,18.85
2023-10-26T14:56:54.836Z,20.75
2023-10-26T14:59:21.420Z,23.35
2023-10-26T15:01:48.211Z,18.20
2023-10-26T15:04:14.904Z,21.48
2023-10-26T15:06:41.609Z,22.08
2023-10-26T15:09:09.754Z,20.92
2023-10-26T15:11:55.822Z,23.42
2023-10-26T15:14:23.311Z,21.52
2023-10-26T15:16:50.215Z,21.88
2023-10-26T15:19:16.833Z,24.55
2023-10-26T15:21:43.560Z,24.75
2023-10-26T15:24:10.265Z,30.25
2023-10-26T15:26:37.170Z,29.77
2023-10-26T15:29:04.063Z,38.83
2023-10-26T15:31:31.214Z,41.22
2023-10-26T15:34:00.607Z,89.47
2023-10-26T15:36:27.381Z,40.38
2023-10-26T15:38:58.276Z,29.77
2023-10-26T15:41:24.964Z,25.25
2023-10-26T15:43:51.855Z,22.30
2023-10-26T15:46:18.525Z,21.95
2023-10-26T15:49:34.925Z,19.60
2023-10-26T15:53:58.960Z,22.42
2023-10-26T15:56:25.562Z,22.60
2023-10-26T15:58:52.752Z,24.20
2023-10-26T16:01:20.776Z,25.83
2023-10-26T16:03:47.801Z,26.27
2023-10-26T16:06:15.395Z,31.25
2023-10-26T16:08:42.289Z,27.70
2023-10-26T16:11:12.531Z,34.33
2023-10-26T16:13:39.339Z,32.13
2023-10-26T16:16:06.290Z,29.95
2023-10-26T16:18:33.035Z,29.48
2023-10-26T16:20:59.716Z,28.40
2023-10-26T16:23:27.378Z,28.40
2023-10-26T16:25:55.109Z,29.30
2023-10-26T16:28:21.934Z,30.77
2023-10-26T16:30:49.411Z,28.80
2023-10-26T16:33:16.161Z,49.88
2023-10-26T16:35:44.214Z,152.35
2023-10-26T16:38:10.877Z,135.40
2023-10-26T16:40:37.512Z,59.75
2023-10-26T16:43:05.734Z,43.72
2023-10-26T16:45:32.468Z,35.13
2023-10-26T16:47:59.238Z,35.47
2023-10-26T16:50:26.518Z,38.28
2023-10-26T16:52:53.203Z,31.15
2023-10-26T16:55:20.789Z,35.40
2023-10-26T16:57:49.550Z,37.35
2023-10-26T17:00:16.995Z,41.55
2023-10-26T17:02:44.354Z,39.20
2023-10-26T17:05:11.101Z,34.72
2023-10-26T17:07:42.853Z,62.08
2023-10-26T17:10:10.480Z,35.90
2023-10-26T17:12:42.308Z,125.22
2023-10-26T17:15:10.859Z,44.58
2023-10-26T17:17:37.466Z,40.83
2023-10-26T17:20:04.665Z,36.75
2023-10-26T17:22:31.206Z,41.33
2023-10-26T17:24:58.286Z,38.72
2023-10-26T17:27:24.943Z,43.05
2023-10-26T17:29:51.611Z,37.75
2023-10-26T17:32:18.144Z,36.22
2023-10-26T17:34:44.881Z,39.58
2023-10-26T17:37:11.530Z,40.50
2023-10-26T17:39:38.401Z,45.42
2023-10-26T17:42:06.714Z,39.50
2023-10-26T17:44:33.868Z,38.53
2023-10-26T17:47:00.790Z,42.92
2023-10-26T17:49:28.392Z,42.53
2023-10-26T17:51:55.114Z,74.88
2023-10-26T17:54:21.727Z,47.30
2023-10-26T17:56:48.346Z,48.75
2023-10-26T17:59:15.140Z,45.95
2023-10-26T18:01:42.099Z,50.38
2023-10-26T18:04:09.758Z,51.92
2023-10-26T18:06:36.431Z,43.33
2023-10-26T18:09:03.089Z,48.75
2023-10-26T18:11:29.725Z,50.08
2023-10-26T18:13:56.381Z,44.53
2023-10-26T18:16:23.163Z,50.55
2023-10-26T18:18:49.856Z,45.15
2023-10-26T18:21:16.659Z,50.28
2023-10-26T18:23:43.312Z,59.72
2023-10-26T18:26:10.971Z,49.30
2023-10-26T18:28:38.509Z,49.45
2023-10-26T18:31:12.469Z,46.05
2023-10-26T18:33:40.590Z,44.50
2023-10-26T18:36:10.296Z,43.97
2023-10-26T18:38:39.995Z,55.70
2023-10-26T18:41:06.681Z,52.67
2023-10-26T18:43:33.810Z,45.28
2023-10-26T18:46:01.127Z,49.78
2023-10-26T18:48:35.507Z,52.50
2023-10-26T18:51:02.820Z,48.63
2023-10-26T18:53:29.749Z,57.00
2023-10-26T18:55:56.866Z,53.72
2023-10-26T18:58:26.023Z,54.97
2023-10-26T19:00:53.260Z,51.63
2023-10-26T19:03:20.715Z,49.83
2023-10-26T19:05:48.688Z,47.65
2023-10-26T19:08:16.338Z,55.88
2023-10-26T19:10:43.278Z,49.83
2023-10-26T19:13:10.393Z,52.60
2023-10-26T19:15:37.242Z,60.60
2023-10-26T19:18:04.100Z,56.03
2023-10-26T19:20:34.644Z,60.88
2023-10-26T19:23:01.611Z,56.08
2023-10-26T19:25:28.990Z,49.53
2023-10-26T19:27:56.542Z,52.08
2023-10-26T19:30:26.343Z,48.22
2023-10-26T19:33:01.974Z,50.90
2023-10-26T19:35:29.306Z,54.47
2023-10-26T19:37:56.290Z,47.92
2023-10-26T19:40:23.246Z,53.10
2023-10-26T19:42:50.068Z,45.47
2023-10-26T19:45:16.828Z,50.65
2023-10-26T19:47:44.466Z,46.00
2023-10-26T19:50:14.740Z,53.38
2023-10-26T19:52:43.879Z,51.17
2023-10-26T19:55:11.248Z,46.63
2023-10-26T19:57:38.418Z,44.17
2023-10-26T20:00:10.653Z,45.63
2023-10-26T20:02:40.409Z,51.50
2023-10-26T20:05:07.363Z,47.55
2023-10-26T20:07:34.021Z,46.10
2023-10-26T20:10:00.604Z,50.03
2023-10-26T20:12:27.546Z,41.70
2023-10-26T20:14:54.215Z,54.92
2023-10-26T20:17:20.984Z,49.38
2023-10-26T20:19:47.713Z,50.08
2023-10-26T20:22:14.364Z,48.35
2023-10-26T20:24:41.147Z,46.50
2023-10-26T20:27:08.153Z,50.20
2023-10-26T20:29:35.871Z,44.38
2023-10-26T20:32:03.001Z,55.28
2023-10-26T20:34:30.130Z,48.10
2023-10-26T20:36:57.581Z,48.83
2023-10-26T20:39:24.360Z,51.10
2023-10-26T20:41:50.997Z,52.95
2023-10-26T20:44:18.150Z,48.28
2023-10-26T20:46:45.035Z,45.20
2023-10-26T20:49:12.180Z,47.90
2023-10-26T20:51:40.180Z,53.53
2023-10-26T20:54:07.868Z,52.35
2023-10-26T20:56:34.679Z,50.80
2023-10-26T20:59:01.310Z,51.70
2023-10-26T21:01:27.991Z,47.55
2023-10-26T21:03:54.766Z,57.22
2023-10-26T21:06:21.563Z,49.33
2023-10-26T21:08:51.157Z,52.00
2023-10-26T21:11:18.045Z,48.13
2023-10-26T21:13:44.988Z,56.80
2023-10-26T21:16:12.004Z,52.38
2023-10-26T21:18:38.611Z,51.95
2023-10-26T21:21:06.118Z,59.80
2023-10-26T21:23:33.261Z,60.00
2023-10-26T21:26:03.894Z,56.15
2023-10-26T21:28:30.549Z,52.92
2023-10-26T21:30:57.682Z,59.30
2023-10-26T21:33:24.341Z,62.78
2023-10-26T21:35:51.108Z,65.70
2023-10-26T21:38:18.187Z,60.38
2023-10-26T21:40:45.706Z,66.50
2023-10-26T21:43:12.492Z,63.85
2023-10-26T21:45:39.362Z,65.10
2023-10-26T21:48:06.160Z,56.30
2023-10-26T21:50:33.577Z,63.67
2023-10-26T21:53:00.178Z,64.95
2023-10-26T21:55:26.868Z,58.97
2023-10-26T21:57:53.586Z,64.38
2023-10-26T22:00:25.688Z,62.85
2023-10-26T22:02:53.522Z,57.85
2023-10-26T22:05:20.146Z,56.75
2023-10-26T22:07:47.556Z,58.65
2023-10-26T22:10:16.655Z,62.15
2023-10-26T22:12:43.478Z,56.05
2023-10-26T22:15:13.346Z,58.58
2023-10-26T22:17:41.305Z,58.78
2023-10-26T22:20:09.577Z,65.60
2023-10-26T22:22:37.242Z,57.08
2023-10-26T22:25:04.498Z,58.78
2023-10-26T22:27:31.784Z,65.40
2023-10-26T22:29:58.673Z,61.45
2023-10-26T22:32:25.361Z,76.85
2023-10-26T22:34:52.387Z,69.95
2023-10-26T22:37:19.654Z,64.78
2023-10-26T22:39:46.708Z,67.65
2023-10-26T22:42:13.729Z,64.80
2023-10-26T22:44:40.292Z,74.97
2023-10-26T22:47:07.407Z,78.95
2023-10-26T22:49:34.683Z,75.28
2023-10-26T22:52:01.329Z,76.50
2023-10-26T22:54:28.133Z,92.78
2023-10-26T22:56:54.697Z,79.82
2023-10-26T22:59:21.868Z,87.40
2023-10-26T23:01:48.590Z,93.15
2023-10-26T23:04:15.693Z,84.57
2023-10-26T23:06:42.551Z,81.20
2023-10-26T23:09:12.733Z,88.85
2023-10-26T23:11:39.767Z,85.78
2023-10-26T23:14:10.065Z,81.60
2023-10-26T23:16:37.655Z,88.57
2023-10-26T23:19:04.985Z,83.32
2023-10-26T23:21:33.286Z,76.88
2023-10-26T23:24:01.150Z,85.38
2023-10-26T23:26:27.872Z,91.38
2023-10-26T23:28:54.484Z,87.78
2023-10-26T23:31:21.179Z,66.50
2023-10-26T23:33:48.210Z,73.20
2023-10-26T23:36:14.972Z,69.35
2023-10-26T23:38:41.615Z,60.55
2023-10-26T23:41:09.179Z,49.03
2023-10-26T23:46:19.999Z,46.05
2023-10-26T23:48:46.727Z,41.17
2023-10-26T23:51:13.565Z,48.15
2023-10-26T23:53:40.680Z,41.97
2023-10-26T23:56:07.756Z,41.75
2023-10-26T23:58:34.395Z,38.88
